Pagrindinis puslapis
METAR-TAF:

METAR-TAF

Oro uostai :

Kufra, Libija

platuma: 24-13N, ilguma: 023-18E, Aukštis: 417 m

METAR: trūkstamas

Laikas: 16:17 (14:17 UTC)

Prognozė

Ataskaita buvo paskelbta 9 valandos ir 17 minutes, ne 05:00 UTC
Prognozė galioja nuo 20 metu 06 UTC su 21 metu 06 UTC
Vėjas 10 kt iš Šiaurės/Šiaurės Rytų
Matomumas: 8000 m

TAF: HLKF 200500Z 2006/2106 03010KT 8000 NSC

Orai ataskaitas ir orų prognozės (METAR, TAF).

turimą stotys yra geltonos ir raudonos taškus žemėlapyje.

Perkelti pele per norėdami pamatyti stoties vardą.

Tada spustelėkite, norėdami matyti oro stebėjimo ir prognozės.

Norėdami pakeisti žemėlapį: spustelėkite ant žalios mygtukų su juodo kryžiaus žemyn,; žalią mygtuką su brūkšneliu, jei norite nutolinti; arba žalių rodyklių gretimoms žemėlapius.


METAR-TAF: